Terminal Aerodrome Forecast
Issued by NWS

Home | Current Version | Previous Version | Text Only | Print | Product List | Glossary On
Versions: 1 2 3 4 5 6 7 8 9 10 11 12 13 14 15 16 17 18 19 20 21 22 23 24
000
FTUS41 KRNK 292336
TAFLWB
TAF
KLWB 292336Z 3000/3024 23004KT P6SM VCSH BKN040 OVC090
      TEMPO 3000/3003 4SM SHRA SCT015 OVC025
     FM300400 00000KT 4SM BR OVC015
     FM300700 00000KT 2SM BR OVC020
     FM301400 27004KT P6SM SCT020 BKN040=

USA.gov is the U.S. government's official web portal to all federal, state and local government web resources and services.